createdAt,value
2023-05-30T00:00:20.968Z,4.82
2023-05-30T00:02:23.855Z,4.32
2023-05-30T00:04:26.650Z,4.05
2023-05-30T00:06:29.943Z,4.15
2023-05-30T00:08:32.604Z,4.38
2023-05-30T00:10:35.304Z,4.40
2023-05-30T00:12:41.654Z,4.43
2023-05-30T00:14:44.734Z,4.35
2023-05-30T00:16:47.335Z,4.22
2023-05-30T00:18:50.108Z,4.18
2023-05-30T00:20:52.810Z,4.40
2023-05-30T00:22:55.453Z,4.45
2023-05-30T00:25:01.053Z,4.63
2023-05-30T00:27:03.976Z,4.63
2023-05-30T00:29:07.955Z,4.07
2023-05-30T00:31:10.771Z,4.50
2023-05-30T00:33:14.206Z,4.47
2023-05-30T00:35:16.864Z,4.38
2023-05-30T00:37:19.495Z,4.68
2023-05-30T00:39:22.116Z,5.07
2023-05-30T00:41:24.870Z,4.55
2023-05-30T00:43:27.507Z,4.68
2023-05-30T00:45:31.700Z,3.97
2023-05-30T00:47:34.462Z,4.00
2023-05-30T00:49:37.217Z,4.40
2023-05-30T00:51:40.423Z,4.50
2023-05-30T00:53:43.965Z,4.68
2023-05-30T00:55:46.922Z,4.43
2023-05-30T00:57:50.285Z,4.80
2023-05-30T00:59:53.014Z,4.35
2023-05-30T01:01:57.223Z,4.20
2023-05-30T01:04:00.715Z,4.10
2023-05-30T01:06:04.317Z,4.20
2023-05-30T01:08:09.098Z,4.25
2023-05-30T01:10:12.546Z,4.43
2023-05-30T01:12:20.601Z,4.15
2023-05-30T01:14:29.879Z,4.40
2023-05-30T01:16:38.410Z,4.75
2023-05-30T01:18:48.549Z,4.60
2023-05-30T01:20:55.550Z,4.95
2023-05-30T01:23:40.479Z,4.72
2023-05-30T01:25:59.281Z,4.45
2023-05-30T01:28:07.744Z,3.92
2023-05-30T01:30:11.755Z,4.45
2023-05-30T01:32:15.195Z,5.00
2023-05-30T01:34:19.873Z,4.03
2023-05-30T01:36:22.603Z,4.35
2023-05-30T01:38:25.309Z,4.60
2023-05-30T01:40:29.580Z,5.07
2023-05-30T01:42:34.425Z,4.78
2023-05-30T01:44:42.595Z,4.35
2023-05-30T01:46:50.152Z,4.38
2023-05-30T01:49:00.514Z,4.72
2023-05-30T01:51:13.375Z,4.38
2023-05-30T01:53:23.370Z,4.32
2023-05-30T01:55:27.485Z,4.43
2023-05-30T01:57:31.604Z,4.32
2023-05-30T01:59:36.111Z,4.05
2023-05-30T02:01:41.782Z,4.90
2023-05-30T02:03:44.567Z,4.30
2023-05-30T02:05:47.234Z,4.57
2023-05-30T02:07:49.865Z,4.75
2023-05-30T02:09:52.486Z,4.38
2023-05-30T02:11:55.092Z,5.30
2023-05-30T02:13:58.844Z,4.53
2023-05-30T02:16:01.460Z,4.75
2023-05-30T02:18:05.605Z,3.95
2023-05-30T02:20:09.306Z,4.32
2023-05-30T02:22:12.113Z,4.55
2023-05-30T02:24:14.788Z,5.20
2023-05-30T02:26:17.755Z,4.72
2023-05-30T02:28:20.361Z,4.50
2023-05-30T02:30:22.980Z,4.43
2023-05-30T02:32:25.751Z,4.57
2023-05-30T02:34:29.813Z,4.43
2023-05-30T02:36:33.901Z,4.82
2023-05-30T02:38:36.639Z,4.95
2023-05-30T02:40:39.223Z,4.63
2023-05-30T02:42:41.880Z,5.18
2023-05-30T02:44:44.523Z,4.80
2023-05-30T02:46:50.191Z,5.10
2023-05-30T02:48:52.889Z,4.93
2023-05-30T02:50:57.128Z,5.65
2023-05-30T02:52:59.852Z,5.25
2023-05-30T02:55:02.624Z,5.03
2023-05-30T02:57:06.132Z,4.65
2023-05-30T02:59:08.771Z,5.20
2023-05-30T03:01:11.385Z,4.72
2023-05-30T03:03:14.145Z,4.90
2023-05-30T03:05:16.819Z,5.35
2023-05-30T03:07:20.762Z,5.10
2023-05-30T03:09:23.475Z,5.18
2023-05-30T03:11:26.139Z,4.95
2023-05-30T03:13:28.801Z,5.45
2023-05-30T03:15:31.450Z,4.88
2023-05-30T03:17:34.100Z,4.75
2023-05-30T03:19:37.258Z,5.38
2023-05-30T03:21:40.045Z,5.25
2023-05-30T03:23:44.261Z,5.95
2023-05-30T03:25:47.025Z,6.03
2023-05-30T03:27:51.643Z,6.00
2023-05-30T03:29:54.551Z,5.07
2023-05-30T03:31:57.190Z,4.60
2023-05-30T03:33:59.809Z,5.07
2023-05-30T03:36:02.503Z,5.05
2023-05-30T03:38:05.427Z,5.05
2023-05-30T03:40:13.673Z,5.53
2023-05-30T03:42:16.404Z,5.15
2023-05-30T03:44:22.904Z,5.40
2023-05-30T03:46:25.769Z,6.38
2023-05-30T03:48:28.563Z,4.85
2023-05-30T03:50:31.278Z,5.22
2023-05-30T03:52:33.906Z,4.93
2023-05-30T03:54:36.496Z,5.07
2023-05-30T03:56:40.425Z,5.55
2023-05-30T03:58:43.034Z,4.80
2023-05-30T04:00:45.729Z,5.55
2023-05-30T04:02:48.403Z,5.85
2023-05-30T04:04:51.286Z,5.65
2023-05-30T04:06:54.815Z,6.05
2023-05-30T04:08:57.587Z,6.00
2023-05-30T04:11:00.380Z,6.70
2023-05-30T04:13:04.463Z,5.60
2023-05-30T04:15:08.266Z,5.53
2023-05-30T04:17:10.904Z,5.82
2023-05-30T04:19:13.532Z,5.80
2023-05-30T04:21:16.368Z,5.60
2023-05-30T04:23:19.010Z,5.72
2023-05-30T04:25:21.810Z,6.47
2023-05-30T04:27:25.171Z,5.60
2023-05-30T04:29:29.089Z,5.47
2023-05-30T04:31:31.794Z,5.65
2023-05-30T04:33:36.280Z,5.63
2023-05-30T04:35:40.229Z,5.60
2023-05-30T04:37:45.124Z,5.68
2023-05-30T04:39:48.916Z,5.72
2023-05-30T04:41:55.720Z,5.50
2023-05-30T04:43:58.850Z,5.32
2023-05-30T04:46:11.080Z,5.63
2023-05-30T04:48:16.589Z,5.60
2023-05-30T04:50:20.494Z,5.72
2023-05-30T04:52:24.452Z,5.78
2023-05-30T04:54:28.367Z,5.95
2023-05-30T04:56:31.005Z,6.57
2023-05-30T04:58:33.713Z,6.07
2023-05-30T05:00:37.570Z,5.95
2023-05-30T05:02:41.615Z,5.97
2023-05-30T05:04:44.277Z,5.75
2023-05-30T05:06:46.957Z,5.10
2023-05-30T05:08:49.718Z,5.93
2023-05-30T05:10:52.295Z,5.80
2023-05-30T05:12:55.111Z,5.70
2023-05-30T05:14:58.636Z,5.65
2023-05-30T05:17:01.218Z,5.45
2023-05-30T05:19:05.175Z,5.75
2023-05-30T05:21:08.841Z,6.15
2023-05-30T05:23:11.622Z,5.85
2023-05-30T05:25:15.116Z,5.63
2023-05-30T05:27:17.782Z,5.50
2023-05-30T05:29:20.401Z,5.50
2023-05-30T05:31:23.022Z,5.72
2023-05-30T05:33:25.791Z,6.45
2023-05-30T05:35:29.761Z,5.72
2023-05-30T05:37:35.627Z,5.95
2023-05-30T05:39:38.240Z,5.53
2023-05-30T05:41:40.867Z,5.85
2023-05-30T05:43:43.473Z,5.60
2023-05-30T05:45:46.185Z,5.90
2023-05-30T05:47:48.874Z,5.47
2023-05-30T05:49:52.429Z,5.68
2023-05-30T05:51:56.585Z,5.95
2023-05-30T05:53:59.278Z,5.50
2023-05-30T05:56:02.364Z,4.95
2023-05-30T05:58:05.020Z,5.32
2023-05-30T06:00:09.979Z,5.18
2023-05-30T06:02:13.110Z,4.93
2023-05-30T06:04:15.829Z,5.75
2023-05-30T06:06:18.572Z,5.13
2023-05-30T06:08:22.557Z,5.30
2023-05-30T06:10:27.000Z,5.25
2023-05-30T06:12:29.688Z,5.60
2023-05-30T06:14:32.290Z,5.20
2023-05-30T06:16:34.909Z,5.53
2023-05-30T06:18:37.568Z,5.35
2023-05-30T06:20:40.201Z,4.85
2023-05-30T06:22:42.836Z,5.80
2023-05-30T06:24:48.030Z,5.20
2023-05-30T06:26:50.699Z,5.60
2023-05-30T06:28:53.405Z,5.55
2023-05-30T06:30:56.220Z,6.30
2023-05-30T06:32:59.152Z,5.65
2023-05-30T06:35:01.947Z,5.43
2023-05-30T06:37:04.827Z,5.40
2023-05-30T06:39:07.821Z,5.28
2023-05-30T06:41:11.880Z,5.45
2023-05-30T06:43:14.493Z,4.90
2023-05-30T06:45:20.447Z,5.60
2023-05-30T06:47:23.435Z,4.95
2023-05-30T06:49:26.080Z,5.30
2023-05-30T06:51:28.707Z,5.30
2023-05-30T06:53:31.302Z,5.45
2023-05-30T06:55:33.905Z,5.88
2023-05-30T06:57:38.937Z,5.85
2023-05-30T06:59:42.171Z,5.13
2023-05-30T07:01:44.807Z,5.75
2023-05-30T07:03:47.514Z,4.95
2023-05-30T07:05:50.172Z,5.10
2023-05-30T07:07:52.756Z,5.35
2023-05-30T07:09:55.784Z,5.47
2023-05-30T07:11:58.404Z,5.55
2023-05-30T07:14:02.311Z,4.90
2023-05-30T07:16:04.912Z,5.47
2023-05-30T07:18:07.652Z,5.05
2023-05-30T07:20:10.972Z,5.38
2023-05-30T07:22:13.614Z,5.22
2023-05-30T07:24:16.233Z,5.45
2023-05-30T07:26:18.873Z,5.15
2023-05-30T07:28:23.624Z,6.03
2023-05-30T07:30:28.798Z,5.22
2023-05-30T07:32:31.494Z,5.13
2023-05-30T07:34:34.205Z,5.78
2023-05-30T07:36:37.419Z,5.15
2023-05-30T07:38:40.036Z,4.93
2023-05-30T07:40:42.648Z,4.75
2023-05-30T07:42:45.318Z,4.85
2023-05-30T07:44:47.972Z,4.80
2023-05-30T07:46:54.993Z,5.15
2023-05-30T07:48:57.620Z,4.80
2023-05-30T07:51:00.583Z,4.68
2023-05-30T07:53:04.071Z,4.80
2023-05-30T07:55:07.159Z,5.25
2023-05-30T07:57:13.973Z,5.28
2023-05-30T07:59:16.614Z,5.43
2023-05-30T08:01:22.065Z,4.93
2023-05-30T08:03:27.211Z,4.70
2023-05-30T08:05:33.133Z,4.60
2023-05-30T08:07:37.597Z,5.00
2023-05-30T08:09:40.986Z,5.03
2023-05-30T08:11:43.611Z,4.82
2023-05-30T08:13:46.234Z,4.65
2023-05-30T08:15:48.951Z,5.22
2023-05-30T08:17:51.908Z,5.03
2023-05-30T08:19:56.764Z,5.40
2023-05-30T08:21:59.385Z,4.90
2023-05-30T08:24:04.267Z,4.78
2023-05-30T08:26:09.893Z,4.70
2023-05-30T08:28:12.795Z,4.90
2023-05-30T08:30:15.437Z,5.03
2023-05-30T08:32:18.176Z,5.43
2023-05-30T08:34:21.753Z,4.53
2023-05-30T08:36:25.739Z,5.28
2023-05-30T08:38:28.414Z,5.03
2023-05-30T08:40:31.187Z,5.03
2023-05-30T08:42:33.818Z,5.22
2023-05-30T08:44:36.585Z,5.43
2023-05-30T08:46:43.604Z,4.85
2023-05-30T08:48:47.374Z,4.68
2023-05-30T08:50:50.494Z,4.65
2023-05-30T08:52:55.484Z,5.00
2023-05-30T08:55:03.679Z,5.10
2023-05-30T08:57:10.813Z,5.43
2023-05-30T08:59:15.596Z,5.03
2023-05-30T09:01:19.399Z,5.63
2023-05-30T09:03:23.940Z,5.57
2023-05-30T09:05:27.663Z,5.70
2023-05-30T09:07:31.241Z,4.90
2023-05-30T09:09:36.287Z,4.70
2023-05-30T09:11:38.933Z,4.97
2023-05-30T09:13:42.735Z,5.03
2023-05-30T09:15:46.311Z,5.18
2023-05-30T09:17:49.281Z,4.80
2023-05-30T09:19:52.551Z,5.22
2023-05-30T09:21:56.083Z,5.43
2023-05-30T09:24:03.781Z,5.20
2023-05-30T09:26:10.258Z,5.55
2023-05-30T09:28:13.691Z,4.72
2023-05-30T09:30:17.362Z,4.93
2023-05-30T09:32:21.950Z,4.78
2023-05-30T09:34:24.625Z,4.03
2023-05-30T09:36:28.086Z,5.15
2023-05-30T09:38:31.339Z,5.55
2023-05-30T09:40:33.976Z,4.78
2023-05-30T09:42:45.702Z,4.68
2023-05-30T09:46:57.251Z,4.82
2023-05-30T09:49:02.688Z,4.43
2023-05-30T09:51:05.738Z,4.75
2023-05-30T09:53:09.729Z,5.00
2023-05-30T09:55:14.866Z,4.65
2023-05-30T09:57:17.588Z,4.70
2023-05-30T09:59:24.579Z,4.32
2023-05-30T10:01:28.042Z,5.22
2023-05-30T10:03:43.242Z,4.40
2023-05-30T10:05:45.993Z,4.63
2023-05-30T10:07:50.803Z,5.05
2023-05-30T10:09:54.717Z,4.70
2023-05-30T10:11:58.093Z,5.00
2023-05-30T10:14:01.438Z,4.82
2023-05-30T10:16:10.930Z,4.72
2023-05-30T10:18:17.451Z,4.18
2023-05-30T10:20:23.960Z,5.05
2023-05-30T10:22:30.129Z,4.95
2023-05-30T10:24:33.080Z,5.15
2023-05-30T10:26:38.135Z,5.15
2023-05-30T10:28:42.205Z,4.65
2023-05-30T10:30:44.902Z,4.97
2023-05-30T10:32:55.657Z,4.15
2023-05-30T10:35:07.286Z,4.65
2023-05-30T10:37:10.672Z,4.50
2023-05-30T10:39:25.456Z,4.75
2023-05-30T10:41:36.370Z,4.47
2023-05-30T10:43:49.388Z,4.68
2023-05-30T10:46:06.248Z,4.50
2023-05-30T10:48:23.503Z,4.65
2023-05-30T10:50:33.661Z,4.50
2023-05-30T10:52:36.432Z,4.72
2023-05-30T10:54:42.321Z,4.43
2023-05-30T10:56:45.046Z,4.80
2023-05-30T10:58:48.408Z,4.50
2023-05-30T11:00:51.493Z,4.35
2023-05-30T11:02:56.021Z,4.53
2023-05-30T11:05:06.089Z,4.68
2023-05-30T11:07:08.922Z,4.40
2023-05-30T11:09:13.555Z,4.57
2023-05-30T11:11:20.251Z,4.07
2023-05-30T11:13:23.128Z,4.47
2023-05-30T11:15:35.962Z,4.53
2023-05-30T11:17:39.953Z,4.22
2023-05-30T11:19:44.204Z,3.88
2023-05-30T11:21:58.624Z,4.10
2023-05-30T11:24:01.718Z,4.47
2023-05-30T11:26:04.690Z,3.85
2023-05-30T11:28:17.498Z,3.95
2023-05-30T11:30:21.820Z,4.22
2023-05-30T11:32:29.659Z,4.40
2023-05-30T11:34:32.329Z,4.00
2023-05-30T11:36:38.627Z,4.43
2023-05-30T11:38:48.127Z,4.22
2023-05-30T11:40:51.923Z,3.60
2023-05-30T11:42:55.718Z,3.80
2023-05-30T11:44:58.476Z,4.78
2023-05-30T11:47:03.038Z,4.38
2023-05-30T11:49:06.661Z,3.95
2023-05-30T11:51:09.919Z,4.38
2023-05-30T11:53:14.416Z,3.72
2023-05-30T11:55:18.576Z,3.53
2023-05-30T11:57:21.522Z,3.63
2023-05-30T11:59:26.258Z,3.75
2023-05-30T12:01:29.420Z,3.92
2023-05-30T12:03:32.789Z,3.85
2023-05-30T12:05:35.800Z,4.38
2023-05-30T12:07:38.445Z,3.88
2023-05-30T12:09:42.615Z,4.10
2023-05-30T12:11:59.078Z,3.90
2023-05-30T12:14:01.788Z,4.10
2023-05-30T12:16:04.554Z,3.70
2023-05-30T12:18:08.017Z,4.28
2023-05-30T12:20:15.812Z,3.83
2023-05-30T12:22:18.643Z,4.05
2023-05-30T12:24:23.820Z,4.07
2023-05-30T12:26:27.166Z,3.78
2023-05-30T12:28:34.054Z,4.00
2023-05-30T12:30:39.079Z,4.18
2023-05-30T12:32:43.110Z,3.92
2023-05-30T12:34:47.656Z,4.05
2023-05-30T12:36:51.814Z,3.88
2023-05-30T12:38:56.163Z,4.25
2023-05-30T12:40:58.882Z,3.70
2023-05-30T12:43:01.755Z,4.28
2023-05-30T12:45:07.957Z,4.15
2023-05-30T12:47:10.973Z,3.38
2023-05-30T12:49:13.598Z,3.80
2023-05-30T12:51:16.293Z,3.50
2023-05-30T12:53:18.961Z,3.50
2023-05-30T12:55:21.974Z,3.45
2023-05-30T12:57:27.098Z,3.97
2023-05-30T12:59:29.922Z,3.70
2023-05-30T13:01:33.935Z,3.58
2023-05-30T13:03:36.688Z,3.25
2023-05-30T13:05:42.701Z,3.70
2023-05-30T13:07:46.968Z,4.00
2023-05-30T13:09:49.704Z,3.70
2023-05-30T13:11:52.456Z,3.95
2023-05-30T13:13:55.091Z,4.10
2023-05-30T13:15:57.967Z,3.97
2023-05-30T13:18:01.946Z,3.88
2023-05-30T13:20:06.132Z,3.72
2023-05-30T13:22:13.369Z,3.53
2023-05-30T13:24:16.381Z,3.80
2023-05-30T13:26:19.198Z,3.65
2023-05-30T13:28:21.815Z,3.58
2023-05-30T13:30:24.418Z,3.63
2023-05-30T13:32:27.088Z,3.58
2023-05-30T13:34:31.529Z,3.42
2023-05-30T13:36:34.248Z,3.40
2023-05-30T13:38:37.071Z,2.95
2023-05-30T13:40:39.685Z,2.78
2023-05-30T13:42:42.366Z,2.90
2023-05-30T13:44:45.012Z,2.88
2023-05-30T13:46:47.982Z,3.28
2023-05-30T13:48:50.637Z,5.97
2023-05-30T13:50:54.579Z,3.17
2023-05-30T13:52:57.761Z,3.15
2023-05-30T13:55:01.531Z,3.10
2023-05-30T13:57:04.474Z,2.95
2023-05-30T13:59:07.148Z,3.00
2023-05-30T14:01:09.843Z,3.10
2023-05-30T14:03:12.661Z,2.72
2023-05-30T14:05:17.873Z,3.28
2023-05-30T14:07:23.213Z,2.97
2023-05-30T14:09:25.847Z,3.03
2023-05-30T14:11:28.481Z,2.90
2023-05-30T14:13:31.271Z,2.95
2023-05-30T14:15:34.164Z,2.60
2023-05-30T14:17:36.852Z,3.05
2023-05-30T14:19:39.576Z,2.72
2023-05-30T14:21:42.715Z,2.78
2023-05-30T14:23:46.695Z,2.75
2023-05-30T14:25:49.374Z,3.20
2023-05-30T14:27:52.865Z,2.70
2023-05-30T14:29:55.562Z,2.80
2023-05-30T14:31:58.797Z,3.05
2023-05-30T14:34:01.518Z,2.88
2023-05-30T14:36:04.591Z,3.08
2023-05-30T14:38:09.076Z,2.95
2023-05-30T14:40:14.866Z,2.95
2023-05-30T14:42:17.573Z,3.22
2023-05-30T14:44:20.213Z,2.90
2023-05-30T14:46:23.070Z,3.70
2023-05-30T14:48:25.793Z,3.15
2023-05-30T14:50:28.797Z,6.13
2023-05-30T14:52:32.415Z,4.95
2023-05-30T14:54:35.089Z,3.10
2023-05-30T14:56:39.337Z,3.13
2023-05-30T14:58:41.948Z,2.60
2023-05-30T15:00:44.646Z,3.20
2023-05-30T15:02:47.335Z,2.95
2023-05-30T15:04:50.037Z,2.78
2023-05-30T15:06:52.710Z,3.80
2023-05-30T15:08:55.778Z,3.15
2023-05-30T15:10:58.687Z,3.13
2023-05-30T15:13:03.093Z,4.13
2023-05-30T15:15:07.802Z,3.10
2023-05-30T15:17:10.422Z,3.50
2023-05-30T15:19:13.313Z,3.03
2023-05-30T15:21:17.259Z,2.75
2023-05-30T15:23:19.901Z,3.42
2023-05-30T15:25:22.546Z,3.10
2023-05-30T15:27:25.139Z,3.00
2023-05-30T15:29:29.655Z,3.78
2023-05-30T15:31:32.359Z,3.20
2023-05-30T15:33:36.329Z,3.33
2023-05-30T15:35:38.942Z,2.90
2023-05-30T15:37:41.537Z,2.95
2023-05-30T15:39:44.330Z,3.03
2023-05-30T15:41:49.890Z,3.55
2023-05-30T15:43:52.502Z,3.65
2023-05-30T15:45:56.685Z,3.65
2023-05-30T15:48:01.372Z,3.15
2023-05-30T15:50:04.006Z,3.10
2023-05-30T15:52:07.626Z,3.00
2023-05-30T15:54:10.241Z,3.33
2023-05-30T15:56:13.272Z,7.28
2023-05-30T15:58:15.992Z,3.28
2023-05-30T16:00:19.484Z,3.60
2023-05-30T16:02:23.487Z,3.35
2023-05-30T16:04:26.115Z,3.40
2023-05-30T16:06:28.813Z,3.20
2023-05-30T16:08:31.461Z,3.50
2023-05-30T16:10:34.179Z,3.20
2023-05-30T16:12:36.807Z,3.10
2023-05-30T16:14:39.965Z,3.67
2023-05-30T16:16:42.671Z,3.40
2023-05-30T16:18:46.656Z,3.30
2023-05-30T16:20:49.413Z,3.72
2023-05-30T16:22:52.787Z,3.38
2023-05-30T16:24:55.455Z,3.50
2023-05-30T16:26:58.061Z,3.72
2023-05-30T16:29:00.715Z,3.60
2023-05-30T16:31:03.468Z,3.92
2023-05-30T16:33:06.371Z,3.28
2023-05-30T16:35:11.145Z,3.13
2023-05-30T16:37:16.348Z,3.33
2023-05-30T16:39:19.173Z,3.47
2023-05-30T16:41:23.499Z,3.40
2023-05-30T16:43:26.169Z,3.38
2023-05-30T16:45:28.766Z,3.35
2023-05-30T16:47:31.501Z,3.25
2023-05-30T16:49:34.229Z,3.63
2023-05-30T16:51:38.291Z,3.58
2023-05-30T16:53:40.931Z,3.63
2023-05-30T16:55:43.737Z,3.05
2023-05-30T16:57:46.351Z,3.60
2023-05-30T16:59:48.939Z,3.50
2023-05-30T17:01:51.628Z,3.03
2023-05-30T17:03:54.335Z,3.50
2023-05-30T17:05:56.985Z,3.30
2023-05-30T17:08:01.938Z,3.25
2023-05-30T17:10:05.025Z,3.13
2023-05-30T17:12:08.896Z,3.55
2023-05-30T17:14:13.230Z,2.92
2023-05-30T17:16:18.037Z,3.28
2023-05-30T17:18:20.746Z,3.92
2023-05-30T17:20:23.406Z,3.20
2023-05-30T17:22:26.856Z,3.25
2023-05-30T17:24:30.857Z,3.30
2023-05-30T17:26:33.438Z,3.58
2023-05-30T17:28:36.117Z,3.35
2023-05-30T17:30:38.850Z,3.65
2023-05-30T17:32:41.652Z,3.80
2023-05-30T17:34:44.537Z,3.90
2023-05-30T17:36:47.974Z,3.47
2023-05-30T17:38:50.584Z,3.70
2023-05-30T17:40:54.604Z,3.17
2023-05-30T17:42:58.249Z,3.35
2023-05-30T17:45:00.896Z,3.50
2023-05-30T17:47:03.591Z,3.30
2023-05-30T17:49:06.913Z,3.35
2023-05-30T17:51:09.503Z,3.83
2023-05-30T17:53:12.119Z,3.33
2023-05-30T17:55:15.057Z,3.15
2023-05-30T17:57:18.978Z,3.45
2023-05-30T17:59:21.920Z,3.33
2023-05-30T18:01:24.938Z,3.67
2023-05-30T18:03:28.218Z,3.00
2023-05-30T18:05:30.866Z,3.92
2023-05-30T18:07:33.464Z,3.20
2023-05-30T18:09:36.953Z,3.35
2023-05-30T18:11:39.742Z,2.88
2023-05-30T18:13:43.967Z,3.40
2023-05-30T18:15:46.809Z,2.85
2023-05-30T18:17:50.089Z,3.40
2023-05-30T18:19:52.843Z,3.25
2023-05-30T18:21:55.644Z,3.47
2023-05-30T18:23:58.944Z,3.13
2023-05-30T18:26:01.839Z,3.20
2023-05-30T18:28:08.171Z,3.53
2023-05-30T18:30:13.132Z,3.17
2023-05-30T18:32:15.908Z,3.47
2023-05-30T18:34:19.898Z,3.40
2023-05-30T18:36:23.082Z,3.20
2023-05-30T18:38:25.763Z,3.72
2023-05-30T18:40:28.483Z,3.00
2023-05-30T18:42:31.184Z,2.88
2023-05-30T18:44:33.840Z,3.28
2023-05-30T18:46:38.065Z,2.95
2023-05-30T18:48:46.107Z,2.88
2023-05-30T18:50:49.496Z,3.15
2023-05-30T18:52:52.168Z,3.22
2023-05-30T18:54:54.776Z,2.65
2023-05-30T18:56:57.492Z,3.15
2023-05-30T18:59:00.369Z,3.40
2023-05-30T19:01:03.864Z,3.15
2023-05-30T19:03:08.209Z,2.90
2023-05-30T19:05:11.066Z,2.83
2023-05-30T19:07:13.773Z,3.10
2023-05-30T19:09:16.362Z,3.00
2023-05-30T19:11:19.275Z,3.30
2023-05-30T19:13:21.874Z,2.95
2023-05-30T19:15:25.228Z,2.72
2023-05-30T19:17:28.573Z,3.15
2023-05-30T19:19:32.651Z,3.30
2023-05-30T19:21:35.318Z,3.45
2023-05-30T19:23:38.817Z,2.95
2023-05-30T19:25:41.635Z,2.88
2023-05-30T19:27:44.285Z,3.22
2023-05-30T19:29:46.885Z,2.85
2023-05-30T19:31:49.545Z,3.15
2023-05-30T19:33:52.499Z,3.10
2023-05-30T19:35:56.589Z,3.20
2023-05-30T19:37:59.950Z,2.70
2023-05-30T19:40:02.558Z,2.80
2023-05-30T19:42:06.419Z,3.00
2023-05-30T19:44:10.277Z,2.78
2023-05-30T19:46:12.898Z,2.80
2023-05-30T19:48:15.571Z,3.08
2023-05-30T19:50:18.570Z,3.50
2023-05-30T19:52:22.524Z,3.90
2023-05-30T19:54:25.154Z,4.78
2023-05-30T19:56:27.793Z,5.55
2023-05-30T19:58:30.449Z,4.97
2023-05-30T20:00:33.708Z,4.00
2023-05-30T20:02:36.413Z,3.80
2023-05-30T20:04:39.059Z,3.28
2023-05-30T20:06:41.679Z,2.70
2023-05-30T20:08:45.815Z,3.10
2023-05-30T20:10:48.565Z,3.10
2023-05-30T20:12:51.209Z,3.20
2023-05-30T20:14:53.788Z,2.92
2023-05-30T20:16:56.599Z,3.10
2023-05-30T20:19:00.248Z,3.38
2023-05-30T20:21:03.281Z,3.10
2023-05-30T20:23:06.218Z,2.88
2023-05-30T20:25:10.847Z,3.08
2023-05-30T20:27:15.069Z,2.78
2023-05-30T20:29:17.781Z,3.05
2023-05-30T20:31:20.887Z,2.78
2023-05-30T20:33:23.513Z,3.10
2023-05-30T20:35:26.149Z,2.83
2023-05-30T20:37:28.899Z,2.83
2023-05-30T20:39:31.647Z,3.13
2023-05-30T20:41:36.211Z,2.67
2023-05-30T20:43:38.906Z,2.95
2023-05-30T20:45:41.903Z,3.53
2023-05-30T20:47:44.546Z,2.85
2023-05-30T20:49:47.676Z,3.08
2023-05-30T20:51:50.415Z,3.35
2023-05-30T20:53:53.072Z,2.80
2023-05-30T20:55:55.697Z,3.30
2023-05-30T20:57:59.723Z,3.30
2023-05-30T21:00:02.568Z,3.08
2023-05-30T21:02:05.694Z,3.05
2023-05-30T21:04:08.565Z,3.58
2023-05-30T21:06:11.266Z,3.60
2023-05-30T21:08:16.597Z,3.10
2023-05-30T21:10:19.239Z,3.25
2023-05-30T21:12:21.913Z,3.20
2023-05-30T21:14:26.060Z,3.28
2023-05-30T21:16:29.224Z,2.97
2023-05-30T21:18:31.960Z,2.65
2023-05-30T21:20:34.671Z,2.53
2023-05-30T21:22:37.347Z,2.92
2023-05-30T21:24:40.026Z,3.17
2023-05-30T21:26:42.865Z,2.90
2023-05-30T21:28:47.165Z,2.53
2023-05-30T21:30:51.287Z,3.42
2023-05-30T21:32:53.941Z,2.85
2023-05-30T21:34:56.580Z,3.17
2023-05-30T21:36:59.366Z,2.78
2023-05-30T21:39:02.056Z,3.05
2023-05-30T21:41:04.717Z,2.70
2023-05-30T21:43:07.306Z,2.75
2023-05-30T21:45:11.298Z,3.15
2023-05-30T21:47:15.294Z,2.75
2023-05-30T21:49:17.893Z,2.30
2023-05-30T21:51:20.698Z,3.10
2023-05-30T21:53:23.308Z,2.85
2023-05-30T21:55:26.097Z,2.78
2023-05-30T21:57:28.749Z,2.50
2023-05-30T21:59:31.733Z,2.90
2023-05-30T22:01:34.409Z,2.97
2023-05-30T22:03:38.482Z,2.70
2023-05-30T22:05:41.242Z,2.90
2023-05-30T22:07:43.865Z,2.97
2023-05-30T22:09:46.695Z,2.80
2023-05-30T22:11:49.849Z,2.80
2023-05-30T22:13:52.425Z,2.67
2023-05-30T22:15:55.528Z,3.20
2023-05-30T22:17:59.444Z,3.20
2023-05-30T22:20:06.998Z,3.40
2023-05-30T22:22:10.410Z,3.33
2023-05-30T22:24:13.318Z,3.05
2023-05-30T22:26:16.128Z,2.90
2023-05-30T22:28:18.886Z,2.83
2023-05-30T22:30:21.642Z,3.10
2023-05-30T22:32:24.381Z,2.47
2023-05-30T22:34:27.021Z,2.80
2023-05-30T22:36:32.581Z,2.90
2023-05-30T22:38:35.270Z,2.90
2023-05-30T22:40:37.871Z,2.60
2023-05-30T22:42:40.558Z,3.05
2023-05-30T22:44:43.440Z,3.00
2023-05-30T22:46:46.199Z,2.38
2023-05-30T22:48:48.820Z,3.05
2023-05-30T22:50:51.424Z,2.85
2023-05-30T22:52:55.390Z,3.03
2023-05-30T22:54:57.989Z,2.92
2023-05-30T22:57:00.636Z,2.90
2023-05-30T22:59:03.298Z,3.20
2023-05-30T23:01:06.391Z,3.30
2023-05-30T23:03:12.915Z,2.85
2023-05-30T23:05:17.035Z,2.78
2023-05-30T23:07:19.659Z,2.88
2023-05-30T23:09:23.777Z,3.08
2023-05-30T23:11:26.435Z,2.63
2023-05-30T23:13:29.048Z,2.38
2023-05-30T23:15:31.712Z,3.28
2023-05-30T23:17:34.530Z,2.72
2023-05-30T23:19:37.188Z,2.22
2023-05-30T23:21:41.239Z,2.45
2023-05-30T23:23:43.896Z,2.70
2023-05-30T23:25:48.086Z,3.00
2023-05-30T23:27:50.723Z,2.63
2023-05-30T23:29:53.360Z,3.10
2023-05-30T23:31:55.978Z,2.58
2023-05-30T23:33:58.650Z,2.63
2023-05-30T23:36:01.279Z,2.63
2023-05-30T23:38:04.165Z,2.90
2023-05-30T23:40:08.069Z,2.55
2023-05-30T23:42:12.086Z,3.10
2023-05-30T23:44:15.091Z,2.67
2023-05-30T23:46:17.743Z,2.63
2023-05-30T23:48:20.574Z,2.78
2023-05-30T23:50:23.220Z,3.00
2023-05-30T23:52:25.895Z,2.85
2023-05-30T23:54:28.802Z,2.92
2023-05-30T23:56:31.426Z,2.90
2023-05-30T23:58:35.474Z,2.35
